createdAt,value
2018-06-19T00:00:31.020Z,68.66
2018-06-19T00:03:00.452Z,68.52
2018-06-19T00:05:31.360Z,68.49
2018-06-19T00:08:02.044Z,69.32
2018-06-19T00:10:31.903Z,68.84
2018-06-19T00:13:01.012Z,69.14
2018-06-19T00:15:30.101Z,69.24
2018-06-19T00:18:04.057Z,68.44
2018-06-19T00:20:33.185Z,68.98
2018-06-19T00:23:02.771Z,69.02
2018-06-19T00:25:31.848Z,69.66
2018-06-19T00:28:00.964Z,69.13
2018-06-19T00:30:30.080Z,69.85
2018-06-19T00:32:59.180Z,70.73
2018-06-19T00:35:28.272Z,69.73
2018-06-19T00:37:57.376Z,70.29
2018-06-19T00:40:26.459Z,70.69
2018-06-19T00:42:55.604Z,70.47
2018-06-19T00:45:24.691Z,70.46
2018-06-19T00:47:53.969Z,70.40
2018-06-19T00:50:23.065Z,70.63
2018-06-19T00:52:52.173Z,70.43
2018-06-19T00:55:21.256Z,70.62
2018-06-19T00:57:50.369Z,71.10
2018-06-19T01:00:19.457Z,70.69
2018-06-19T01:02:48.552Z,71.12
2018-06-19T01:05:17.657Z,70.92
2018-06-19T01:07:46.753Z,70.94
2018-06-19T01:10:15.836Z,70.11
2018-06-19T01:12:44.936Z,70.43
2018-06-19T01:15:14.021Z,70.47
2018-06-19T01:17:43.124Z,70.48
2018-06-19T01:20:12.214Z,70.20
2018-06-19T01:22:41.320Z,70.05
2018-06-19T01:25:10.404Z,69.77
2018-06-19T01:27:39.508Z,69.70
2018-06-19T01:30:08.590Z,69.92
2018-06-19T01:32:37.688Z,70.58
2018-06-19T01:35:07.048Z,70.60
2018-06-19T01:37:36.176Z,70.78
2018-06-19T01:40:05.272Z,69.99
2018-06-19T01:42:34.347Z,70.24
2018-06-19T01:45:03.462Z,70.34
2018-06-19T01:47:32.564Z,69.75
2018-06-19T01:50:01.673Z,69.99
2018-06-19T01:52:30.760Z,69.85
2018-06-19T01:54:59.875Z,69.96
2018-06-19T01:57:28.960Z,69.59
2018-06-19T01:59:58.071Z,70.01
2018-06-19T02:02:27.147Z,69.75
2018-06-19T02:04:56.256Z,69.91
2018-06-19T02:07:25.345Z,70.24
2018-06-19T02:09:54.530Z,70.21
2018-06-19T02:12:23.868Z,70.10
2018-06-19T02:14:52.980Z,69.43
2018-06-19T02:17:22.068Z,69.71
2018-06-19T02:19:51.176Z,69.95
2018-06-19T02:22:20.260Z,70.45
2018-06-19T02:24:49.377Z,70.63
2018-06-19T02:27:18.456Z,70.64
2018-06-19T02:29:47.566Z,71.10
2018-06-19T02:32:16.686Z,71.14
2018-06-19T02:34:45.796Z,70.91
2018-06-19T02:37:14.889Z,70.99
2018-06-19T02:39:43.997Z,70.74
2018-06-19T02:42:13.084Z,71.34
2018-06-19T02:44:42.204Z,70.60
2018-06-19T02:47:11.295Z,71.11
2018-06-19T02:49:40.388Z,71.29
2018-06-19T02:52:09.493Z,70.35
2018-06-19T02:54:38.575Z,70.23
2018-06-19T02:57:07.668Z,70.61
2018-06-19T02:59:36.753Z,69.91
2018-06-19T03:02:06.108Z,70.56
2018-06-19T03:04:35.180Z,70.48
2018-06-19T03:07:04.292Z,70.76
2018-06-19T03:09:33.365Z,71.08
2018-06-19T03:12:02.486Z,70.75
2018-06-19T03:14:31.561Z,70.57
2018-06-19T03:17:00.659Z,70.73
2018-06-19T03:19:29.736Z,70.65
2018-06-19T03:21:58.835Z,70.58
2018-06-19T03:24:27.993Z,70.30
2018-06-19T03:26:57.092Z,70.42
2018-06-19T03:29:26.164Z,70.65
2018-06-19T03:31:55.268Z,70.18
2018-06-19T03:34:24.352Z,69.61
2018-06-19T03:36:53.457Z,70.29
2018-06-19T03:39:22.544Z,70.71
2018-06-19T03:41:51.644Z,70.57
2018-06-19T03:44:20.725Z,70.79
2018-06-19T03:46:49.843Z,71.12
2018-06-19T03:49:18.923Z,70.83
2018-06-19T03:51:48.063Z,71.09
2018-06-19T03:54:17.150Z,71.09
2018-06-19T03:56:46.267Z,70.63
2018-06-19T03:59:15.349Z,70.20
2018-06-19T04:01:44.486Z,70.43
2018-06-19T04:04:13.556Z,70.85
2018-06-19T04:06:42.640Z,70.21
2018-06-19T04:09:11.736Z,70.31
2018-06-19T04:11:40.816Z,69.57
2018-06-19T04:14:09.921Z,69.66
2018-06-19T04:16:38.998Z,70.02
2018-06-19T04:19:08.100Z,70.27
2018-06-19T04:21:37.188Z,70.89
2018-06-19T04:24:06.297Z,70.74
2018-06-19T04:26:35.372Z,71.03
2018-06-19T04:29:04.509Z,70.66
2018-06-19T04:31:33.586Z,71.35
2018-06-19T04:34:02.688Z,70.69
2018-06-19T04:36:31.776Z,70.36
2018-06-19T04:39:00.876Z,71.11
2018-06-19T04:41:29.965Z,70.55
2018-06-19T04:43:59.080Z,70.69
2018-06-19T04:46:28.192Z,70.55
2018-06-19T04:48:57.292Z,70.39
2018-06-19T04:51:26.376Z,70.24
2018-06-19T04:53:55.489Z,70.73
2018-06-19T04:56:24.585Z,69.30
2018-06-19T04:58:53.692Z,69.83
2018-06-19T05:01:22.843Z,69.10
2018-06-19T05:03:51.989Z,69.05
2018-06-19T05:06:21.040Z,68.97
2018-06-19T05:08:50.136Z,68.54
2018-06-19T05:11:19.226Z,67.88
2018-06-19T05:13:48.324Z,68.32
2018-06-19T05:16:17.401Z,67.68
2018-06-19T05:18:46.513Z,68.36
2018-06-19T05:21:15.866Z,68.45
2018-06-19T05:23:44.935Z,67.61
2018-06-19T05:26:14.044Z,67.81
2018-06-19T05:28:43.125Z,67.53
2018-06-19T05:31:12.261Z,67.81
2018-06-19T05:33:41.348Z,67.32
2018-06-19T05:36:10.493Z,68.01
2018-06-19T05:38:39.580Z,67.19
2018-06-19T05:41:08.680Z,67.26
2018-06-19T05:43:37.756Z,67.42
2018-06-19T05:46:06.884Z,67.05
2018-06-19T05:48:35.948Z,67.33
2018-06-19T05:51:05.044Z,67.28
2018-06-19T05:53:34.128Z,66.68
2018-06-19T05:56:03.248Z,66.71
2018-06-19T05:58:32.317Z,66.52
2018-06-19T06:01:01.408Z,66.92
2018-06-19T06:03:30.509Z,65.91
2018-06-19T06:05:59.621Z,66.13
2018-06-19T06:08:28.972Z,66.30
2018-06-19T06:10:58.071Z,66.88
2018-06-19T06:13:27.151Z,66.08
2018-06-19T06:15:56.244Z,66.04
2018-06-19T06:18:25.318Z,66.07
2018-06-19T06:20:54.412Z,65.46
2018-06-19T06:23:23.488Z,66.00
2018-06-19T06:25:53.491Z,65.48
2018-06-19T06:28:22.571Z,65.36
2018-06-19T06:30:51.712Z,65.11
2018-06-19T06:33:20.788Z,65.33
2018-06-19T06:35:49.892Z,65.92
2018-06-19T06:38:18.964Z,65.72
2018-06-19T06:40:48.076Z,65.56
2018-06-19T06:43:17.189Z,65.96
2018-06-19T06:45:46.260Z,66.35
2018-06-19T06:48:15.384Z,66.02
2018-06-19T06:50:45.439Z,65.52
2018-06-19T06:53:14.594Z,65.79
2018-06-19T06:55:43.977Z,65.57
2018-06-19T06:58:13.180Z,65.78
2018-06-19T07:00:42.277Z,65.68
2018-06-19T07:03:11.396Z,66.00
2018-06-19T07:05:42.585Z,65.42
2018-06-19T07:08:12.116Z,65.88
2018-06-19T07:10:41.269Z,65.51
2018-06-19T07:13:10.460Z,65.17
2018-06-19T07:15:39.597Z,64.48
2018-06-19T07:18:08.665Z,65.20
2018-06-19T07:20:37.757Z,63.95
2018-06-19T07:23:06.880Z,63.92
2018-06-19T07:25:35.969Z,63.40
2018-06-19T07:28:05.217Z,63.48
2018-06-19T07:30:34.297Z,63.75
2018-06-19T07:33:03.397Z,62.99
2018-06-19T07:35:33.320Z,63.40
2018-06-19T07:38:02.438Z,63.06
2018-06-19T07:40:31.568Z,63.91
2018-06-19T07:43:02.519Z,63.77
2018-06-19T07:45:31.789Z,64.38
2018-06-19T07:48:01.419Z,64.14
2018-06-19T07:50:31.105Z,63.56
2018-06-19T07:53:00.272Z,64.39
2018-06-19T07:55:29.405Z,63.35
2018-06-19T07:57:58.469Z,62.98
2018-06-19T08:00:27.580Z,62.91
2018-06-19T08:02:56.656Z,63.30
2018-06-19T08:05:25.761Z,63.64
2018-06-19T08:07:55.140Z,62.81
2018-06-19T08:10:24.240Z,62.24
2018-06-19T08:12:54.227Z,62.88
2018-06-19T08:15:23.342Z,62.97
2018-06-19T08:17:52.431Z,62.07
2018-06-19T08:20:21.544Z,62.47
2018-06-19T08:22:50.677Z,63.28
2018-06-19T08:25:19.753Z,62.69
2018-06-19T08:27:49.047Z,63.23
2018-06-19T08:30:18.156Z,62.49
2018-06-19T08:32:47.268Z,62.54
2018-06-19T08:35:16.376Z,63.10
2018-06-19T08:37:45.468Z,64.03
2018-06-19T08:40:14.569Z,63.97
2018-06-19T08:42:43.672Z,65.01
2018-06-19T08:45:12.816Z,63.77
2018-06-19T08:47:41.916Z,63.83
2018-06-19T08:50:11.069Z,63.94
2018-06-19T08:52:40.161Z,63.14
2018-06-19T08:55:09.295Z,62.79
2018-06-19T08:57:38.397Z,62.37
2018-06-19T09:00:07.481Z,62.30
2018-06-19T09:02:36.616Z,62.25
2018-06-19T09:05:05.712Z,62.67
2018-06-19T09:07:35.495Z,62.45
2018-06-19T09:10:04.600Z,63.23
2018-06-19T09:12:33.732Z,63.28
2018-06-19T09:15:02.845Z,63.32
2018-06-19T09:17:31.962Z,62.71
2018-06-19T09:20:01.073Z,62.72
2018-06-19T09:22:30.181Z,62.66
2018-06-19T09:24:59.417Z,62.41
2018-06-19T09:27:28.529Z,63.30
2018-06-19T09:29:57.675Z,62.78
2018-06-19T09:32:26.776Z,64.96
2018-06-19T09:34:55.868Z,65.58
2018-06-19T09:37:24.976Z,66.46
2018-06-19T09:39:54.505Z,66.41
2018-06-19T09:42:23.640Z,67.66
2018-06-19T09:44:52.721Z,69.85
2018-06-19T09:47:21.853Z,69.93
2018-06-19T09:49:50.947Z,71.42
2018-06-19T09:52:20.053Z,71.47
2018-06-19T09:54:49.220Z,72.18
2018-06-19T09:57:18.350Z,71.85
2018-06-19T09:59:47.428Z,72.44
2018-06-19T10:02:16.572Z,71.62
2018-06-19T10:04:45.664Z,71.59
2018-06-19T10:07:18.929Z,72.12
2018-06-19T10:09:48.461Z,72.91
2018-06-19T10:12:17.616Z,72.67
2018-06-19T10:14:47.563Z,72.43
2018-06-19T10:17:16.693Z,72.97
2018-06-19T10:19:45.848Z,74.22
2018-06-19T10:22:14.981Z,73.72
2018-06-19T10:24:44.070Z,73.27
2018-06-19T10:27:13.152Z,72.98
2018-06-19T10:29:42.260Z,73.47
2018-06-19T10:32:11.349Z,73.21
2018-06-19T10:34:40.464Z,73.13
2018-06-19T10:37:09.552Z,72.34
2018-06-19T10:39:38.653Z,72.10
2018-06-19T10:42:07.765Z,72.49
2018-06-19T10:44:36.885Z,71.47
2018-06-19T10:47:05.983Z,70.99
2018-06-19T10:49:35.104Z,72.79
2018-06-19T10:52:04.192Z,73.75
2018-06-19T10:54:33.324Z,72.88
2018-06-19T10:57:02.422Z,71.10
2018-06-19T10:59:31.524Z,70.48
2018-06-19T11:02:00.620Z,69.28
2018-06-19T11:04:30.664Z,70.48
2018-06-19T11:06:59.756Z,70.21
2018-06-19T11:09:28.867Z,69.14
2018-06-19T11:11:57.967Z,69.83
2018-06-19T11:14:27.081Z,68.54
2018-06-19T11:16:56.160Z,68.16
2018-06-19T11:19:25.264Z,67.38
2018-06-19T11:21:54.348Z,67.29
2018-06-19T11:24:23.445Z,66.81
2018-06-19T11:26:52.572Z,65.60
2018-06-19T11:29:21.692Z,67.33
2018-06-19T11:31:50.802Z,64.73
2018-06-19T11:34:19.900Z,65.32
2018-06-19T11:36:49.070Z,64.96
2018-06-19T11:39:18.091Z,65.85
2018-06-19T11:41:47.200Z,65.71
2018-06-19T11:44:16.285Z,65.08
2018-06-19T11:46:45.412Z,65.37
2018-06-19T11:49:14.554Z,62.53
2018-06-19T11:51:43.624Z,63.13
2018-06-19T11:54:13.762Z,63.10
2018-06-19T11:56:42.882Z,61.09
2018-06-19T11:59:11.952Z,61.93
2018-06-19T12:01:41.057Z,61.95
2018-06-19T12:04:10.152Z,61.47
2018-06-19T12:06:39.675Z,60.99
2018-06-19T12:09:09.830Z,60.44
2018-06-19T12:11:39.342Z,61.09
2018-06-19T12:14:09.027Z,61.70
2018-06-19T12:16:38.288Z,61.28
2018-06-19T12:19:07.825Z,61.69
2018-06-19T12:21:37.820Z,61.46
2018-06-19T12:24:06.933Z,61.55
2018-06-19T12:26:36.010Z,61.31
2018-06-19T12:29:05.141Z,59.95
2018-06-19T12:31:34.253Z,59.48
2018-06-19T12:34:03.391Z,59.34
2018-06-19T12:36:33.885Z,60.23
2018-06-19T12:39:03.962Z,60.70
2018-06-19T12:41:47.520Z,60.09
2018-06-19T12:44:16.628Z,58.91
2018-06-19T12:46:45.794Z,58.86
2018-06-19T12:49:18.324Z,58.76
2018-06-19T12:52:00.072Z,59.29
2018-06-19T12:56:42.169Z,58.58
2018-06-19T12:59:11.376Z,59.44
2018-06-19T13:01:40.484Z,58.36
2018-06-19T13:05:24.544Z,58.23
2018-06-19T13:07:53.660Z,58.90
2018-06-19T13:10:22.748Z,60.65
2018-06-19T13:13:30.696Z,60.64
2018-06-19T13:15:59.796Z,60.73
2018-06-19T13:18:41.312Z,60.45
2018-06-19T13:21:10.400Z,60.72
2018-06-19T13:23:39.536Z,61.43
2018-06-19T13:26:08.609Z,60.86
2018-06-19T13:29:56.837Z,60.58
2018-06-19T13:32:26.082Z,61.13
2018-06-19T13:34:55.214Z,60.16
2018-06-19T13:37:24.296Z,60.62
2018-06-19T13:41:07.008Z,59.79
2018-06-19T13:43:47.648Z,59.56
2018-06-19T13:46:16.736Z,59.43
2018-06-19T13:48:45.976Z,58.75
2018-06-19T13:51:15.068Z,59.98
2018-06-19T13:53:44.771Z,59.14
2018-06-19T13:57:40.632Z,59.43
2018-06-19T14:00:12.972Z,57.84
2018-06-19T14:02:42.240Z,58.87
2018-06-19T14:05:12.185Z,58.67
2018-06-19T14:08:02.226Z,58.74
2018-06-19T14:10:42.604Z,58.00
2018-06-19T14:13:11.697Z,57.84
2018-06-19T14:15:47.676Z,57.24
2018-06-19T14:18:17.876Z,57.26
2018-06-19T14:20:46.980Z,57.88
2018-06-19T14:23:16.076Z,57.89
2018-06-19T14:25:45.182Z,57.19
2018-06-19T14:28:14.255Z,57.60
2018-06-19T14:30:43.366Z,58.41
2018-06-19T14:33:12.509Z,57.35
2018-06-19T14:35:41.564Z,57.09
2018-06-19T14:38:10.652Z,57.40
2018-06-19T14:40:39.777Z,58.92
2018-06-19T14:43:08.860Z,58.75
2018-06-19T14:45:37.976Z,58.48
2018-06-19T14:48:07.075Z,59.62
2018-06-19T14:50:36.187Z,58.61
2018-06-19T14:53:05.273Z,59.07
2018-06-19T14:55:34.376Z,59.08
2018-06-19T14:58:03.460Z,58.83
2018-06-19T15:00:32.569Z,58.51
2018-06-19T15:03:01.651Z,58.77
2018-06-19T15:05:30.755Z,58.98
2018-06-19T15:07:59.840Z,59.13
2018-06-19T15:10:28.933Z,58.29
2018-06-19T15:12:58.038Z,58.67
2018-06-19T15:15:27.116Z,58.40
2018-06-19T15:17:56.224Z,57.73
2018-06-19T15:20:25.295Z,57.99
2018-06-19T15:22:54.408Z,58.45
2018-06-19T15:25:23.488Z,58.88
2018-06-19T15:27:52.593Z,59.64
2018-06-19T15:30:21.676Z,58.64
2018-06-19T15:32:50.781Z,58.85
2018-06-19T15:35:19.873Z,58.89
2018-06-19T15:37:48.985Z,58.72
2018-06-19T15:40:18.064Z,58.64
2018-06-19T15:42:47.165Z,58.08
2018-06-19T15:45:16.254Z,58.18
2018-06-19T15:47:45.368Z,58.53
2018-06-19T15:50:14.452Z,58.57
2018-06-19T15:52:43.559Z,59.08
2018-06-19T15:55:12.646Z,59.08
2018-06-19T15:57:41.743Z,58.78
2018-06-19T16:00:10.826Z,58.47
2018-06-19T16:02:39.924Z,59.44
2018-06-19T16:05:09.008Z,59.87
2018-06-19T16:07:42.268Z,60.16
2018-06-19T16:10:11.347Z,59.11
2018-06-19T16:12:40.512Z,59.29
2018-06-19T16:15:09.568Z,58.86
2018-06-19T16:17:38.697Z,58.91
2018-06-19T16:20:07.784Z,58.73
2018-06-19T16:22:36.895Z,58.87
2018-06-19T16:25:05.962Z,58.74
2018-06-19T16:27:35.128Z,58.45
2018-06-19T16:30:04.617Z,59.36
2018-06-19T16:32:33.694Z,58.69
2018-06-19T16:35:02.811Z,58.42
2018-06-19T16:37:31.908Z,58.55
2018-06-19T16:40:01.004Z,58.16
2018-06-19T16:42:30.127Z,58.33
2018-06-19T16:44:59.227Z,58.56
2018-06-19T16:47:28.387Z,59.44
2018-06-19T16:49:57.520Z,60.54
2018-06-19T16:52:26.612Z,63.02
2018-06-19T16:54:55.708Z,65.79
2018-06-19T16:57:24.789Z,67.26
2018-06-19T16:59:53.900Z,67.67
2018-06-19T17:02:22.971Z,67.77
2018-06-19T17:04:52.079Z,69.44
2018-06-19T17:07:21.180Z,69.35
2018-06-19T17:09:50.265Z,70.33
2018-06-19T17:12:19.748Z,69.99
2018-06-19T17:14:48.856Z,70.56
2018-06-19T17:17:17.972Z,71.00
2018-06-19T17:19:47.088Z,70.69
2018-06-19T17:22:16.179Z,70.84
2018-06-19T17:24:45.276Z,70.25
2018-06-19T17:27:14.360Z,70.70
2018-06-19T17:29:43.462Z,70.53
2018-06-19T17:32:12.543Z,70.32
2018-06-19T17:34:41.656Z,70.79
2018-06-19T17:37:11.582Z,70.77
2018-06-19T17:39:40.726Z,71.31
2018-06-19T17:42:09.808Z,70.47
2018-06-19T17:44:38.920Z,71.60
2018-06-19T17:47:08.070Z,71.14
2018-06-19T17:49:37.160Z,71.71
2018-06-19T17:52:06.256Z,71.44
2018-06-19T17:54:35.348Z,71.01
2018-06-19T17:57:04.457Z,70.25
2018-06-19T17:59:33.556Z,70.96
2018-06-19T18:02:03.605Z,71.06
2018-06-19T18:04:32.681Z,70.57
2018-06-19T18:07:01.796Z,71.07
2018-06-19T18:09:30.893Z,71.25
2018-06-19T18:12:00.039Z,70.39
2018-06-19T18:14:29.177Z,69.74
2018-06-19T18:16:58.275Z,70.21
2018-06-19T18:19:27.360Z,70.05
2018-06-19T18:21:56.488Z,69.29
2018-06-19T18:24:25.559Z,70.01
2018-06-19T18:26:54.680Z,69.35
2018-06-19T18:29:23.769Z,69.35
2018-06-19T18:31:52.881Z,69.82
2018-06-19T18:34:21.965Z,69.06
2018-06-19T18:36:51.076Z,69.11
2018-06-19T18:39:20.151Z,69.76
2018-06-19T18:41:49.257Z,69.57
2018-06-19T18:44:18.339Z,70.18
2018-06-19T18:46:47.519Z,70.44
2018-06-19T18:49:17.409Z,70.30
2018-06-19T18:51:46.805Z,70.22
2018-06-19T18:54:15.903Z,70.47
2018-06-19T18:56:44.984Z,70.92
2018-06-19T18:59:15.034Z,71.47
2018-06-19T19:01:44.745Z,71.67
2018-06-19T19:04:13.860Z,71.40
2018-06-19T19:06:43.812Z,71.26
2018-06-19T19:09:12.931Z,71.06
2018-06-19T19:11:42.016Z,70.65
2018-06-19T19:14:11.109Z,71.40
2018-06-19T19:16:45.481Z,71.37
2018-06-19T19:19:18.048Z,70.85
2018-06-19T19:21:47.124Z,71.39
2018-06-19T19:24:16.700Z,70.75
2018-06-19T19:26:51.092Z,71.21
2018-06-19T19:29:26.399Z,70.78
2018-06-19T19:31:55.480Z,70.78
2018-06-19T19:34:25.492Z,71.43
2018-06-19T19:36:59.980Z,71.38
2018-06-19T19:39:30.865Z,71.47
2018-06-19T19:41:59.940Z,66.91
2018-06-19T19:44:29.033Z,69.62
2018-06-19T19:47:03.538Z,70.54
2018-06-19T19:49:32.648Z,71.45
2018-06-19T19:52:08.024Z,71.59
2018-06-19T19:54:37.133Z,72.12
2018-06-19T19:58:10.303Z,71.32
2018-06-19T20:00:39.416Z,72.10
2018-06-19T20:03:08.525Z,72.86
2018-06-19T20:05:37.641Z,72.07
2018-06-19T20:08:06.728Z,71.85
2018-06-19T20:10:35.829Z,72.47
2018-06-19T20:13:05.024Z,72.16
2018-06-19T20:15:34.123Z,72.19
2018-06-19T20:18:04.233Z,71.61
2018-06-19T20:20:33.336Z,71.57
2018-06-19T20:23:02.432Z,71.89
2018-06-19T20:25:31.536Z,72.40
2018-06-19T20:28:00.619Z,71.77
2018-06-19T20:30:29.727Z,71.69
2018-06-19T20:32:58.827Z,71.91
2018-06-19T20:35:27.940Z,72.46
2018-06-19T20:37:57.023Z,72.82
2018-06-19T20:40:26.137Z,72.43
2018-06-19T20:42:55.392Z,72.57
2018-06-19T20:45:24.494Z,72.22
2018-06-19T20:47:53.595Z,72.35
2018-06-19T20:50:22.700Z,72.71
2018-06-19T20:52:51.787Z,72.06
2018-06-19T20:55:20.896Z,72.38
2018-06-19T20:57:49.987Z,72.66
2018-06-19T21:00:19.112Z,72.29
2018-06-19T21:02:48.197Z,72.60
2018-06-19T21:05:17.292Z,70.20
2018-06-19T21:07:46.405Z,71.76
2018-06-19T21:10:15.516Z,71.89
2018-06-19T21:12:44.628Z,71.59
2018-06-19T21:15:13.704Z,72.28
2018-06-19T21:17:42.820Z,72.04
2018-06-19T21:20:11.895Z,72.42
2018-06-19T21:22:41.008Z,72.27
2018-06-19T21:25:10.088Z,72.33
2018-06-19T21:27:39.192Z,71.75
2018-06-19T21:30:09.012Z,72.85
2018-06-19T21:32:38.132Z,72.50
2018-06-19T21:35:07.219Z,68.42
2018-06-19T21:37:36.324Z,70.07
2018-06-19T21:40:05.476Z,71.70
2018-06-19T21:42:34.576Z,72.15
2018-06-19T21:45:04.113Z,72.51
2018-06-19T21:47:33.724Z,72.66
2018-06-19T21:50:04.140Z,73.20
2018-06-19T21:52:33.261Z,73.00
2018-06-19T21:55:02.380Z,73.62
2018-06-19T21:57:32.509Z,73.04
2018-06-19T22:00:01.586Z,73.97
2018-06-19T22:02:33.608Z,73.33
2018-06-19T22:05:04.315Z,74.11
2018-06-19T22:07:33.768Z,74.07
2018-06-19T22:10:02.876Z,74.39
2018-06-19T22:12:31.969Z,74.53
2018-06-19T22:15:01.068Z,74.09
2018-06-19T22:17:30.148Z,74.71
2018-06-19T22:19:59.252Z,74.46
2018-06-19T22:22:28.328Z,74.12
2018-06-19T22:24:57.441Z,74.20
2018-06-19T22:27:26.522Z,74.30
2018-06-19T22:29:55.628Z,74.66
2018-06-19T22:32:24.713Z,74.19
2018-06-19T22:34:53.816Z,74.17
2018-06-19T22:37:22.957Z,74.39
2018-06-19T22:39:52.068Z,75.04
2018-06-19T22:42:21.160Z,74.94
2018-06-19T22:44:50.259Z,75.14
2018-06-19T22:47:19.380Z,74.68
2018-06-19T22:49:48.480Z,75.35
2018-06-19T22:52:17.560Z,75.12
2018-06-19T22:54:53.420Z,74.49
2018-06-19T22:57:22.521Z,74.52
2018-06-19T22:59:51.635Z,74.71
2018-06-19T23:02:20.716Z,74.47
2018-06-19T23:04:49.835Z,74.61
2018-06-19T23:07:18.920Z,74.12
2018-06-19T23:09:48.012Z,73.85
2018-06-19T23:12:17.096Z,73.98
2018-06-19T23:14:46.195Z,74.05
2018-06-19T23:17:15.267Z,74.43
2018-06-19T23:19:44.424Z,74.45
2018-06-19T23:22:13.508Z,74.31
2018-06-19T23:24:42.808Z,74.15
2018-06-19T23:27:11.951Z,74.09
2018-06-19T23:29:41.060Z,74.01
2018-06-19T23:32:10.221Z,73.60
2018-06-19T23:34:39.325Z,73.82
2018-06-19T23:37:08.400Z,73.97
2018-06-19T23:39:37.527Z,73.93
2018-06-19T23:42:06.609Z,73.88
2018-06-19T23:44:35.694Z,74.06
2018-06-19T23:47:04.825Z,74.16
2018-06-19T23:49:33.941Z,74.03
2018-06-19T23:52:03.010Z,73.87
2018-06-19T23:54:32.092Z,74.01
2018-06-19T23:57:01.200Z,74.12
2018-06-19T23:59:30.297Z,73.96
